Time;durP1;ratioP1;P1;durP2;ratioP2;P2;SDS_P1;SDS_P2;PMS_P1;PMS_P2;Temp;Humidity;BMP_temperature;BMP_pressure;BME280_temperature;BME280_humidity;BME280_pressure;Samples;Min_cycle;Max_cycle;Signal;HPM_P1;HPM_P2
2022/01/27 00:01:07;;;;;;;37.72;17.08;;;3.70;99.90;;;;;;6148718;23;20219;-87
2022/01/27 00:04:04;;;;;;;32.85;13.10;;;3.60;99.90;;;;;;6148792;23;20133;-87
2022/01/27 00:06:34;;;;;;;49.88;23.27;;;3.70;99.90;;;;;;6093053;23;20218;-85
2022/01/27 00:09:11;;;;;;;41.42;20.15;;;3.40;99.90;;;;;;6093607;23;20228;-86
2022/01/27 00:11:38;;;;;;;47.70;22.35;;;3.70;99.90;;;;;;6117459;23;20479;-86
2022/01/27 00:14:04;;;;;;;35.15;17.20;;;3.60;99.90;;;;;;6092726;23;20743;-86
2022/01/27 00:16:35;;;;;;;30.00;16.73;;;;;;;;;;6091021;23;20219;-87
2022/01/27 00:19:01;;;;;;;24.05;13.30;;;3.70;99.90;;;;;;6119857;23;20217;-88
2022/01/27 00:21:29;;;;;;;39.40;20.50;;;3.70;99.90;;;;;;6090608;23;20223;-84
2022/01/27 00:23:56;;;;;;;43.35;23.15;;;3.70;99.90;;;;;;6092077;23;20157;-87
2022/01/27 00:26:22;;;;;;;36.88;19.65;;;3.60;99.90;;;;;;6090057;23;20169;-88
2022/01/27 00:28:48;;;;;;;29.38;15.73;;;3.60;99.90;;;;;;6116836;23;20162;-88
2022/01/27 00:31:16;;;;;;;36.67;20.20;;;3.70;99.90;;;;;;6089670;23;20168;-87
2022/01/27 00:33:43;;;;;;;40.13;18.38;;;3.60;99.90;;;;;;6118360;23;20153;-88
2022/01/27 00:36:09;;;;;;;39.08;20.85;;;3.60;99.90;;;;;;6116206;23;20185;-89
2022/01/27 00:38:35;;;;;;;41.47;19.73;;;;;;;;;;6092474;23;20680;-87
2022/01/27 00:41:06;;;;;;;33.47;18.33;;;3.60;99.90;;;;;;6090198;23;20228;-87
2022/01/27 00:43:32;;;;;;;33.70;15.73;;;3.60;99.90;;;;;;6118524;23;20689;-88
2022/01/27 00:45:58;;;;;;;34.47;18.67;;;3.60;99.90;;;;;;6114485;23;20188;-88
2022/01/27 00:48:27;;;;;;;29.95;15.43;;;3.60;99.90;;;;;;6117953;23;20154;-87
2022/01/27 00:50:59;;;;;;;24.15;14.75;;;3.60;99.90;;;;;;6090471;23;20240;-86
2022/01/27 00:53:42;;;;;;;31.38;16.80;;;3.60;99.90;;;;;;6091856;23;20246;-86
2022/01/27 00:56:23;;;;;;;27.40;15.98;;;3.60;99.90;;;;;;6090526;23;20601;-87
2022/01/27 00:59:05;;;;;;;37.75;20.23;;;3.50;99.90;;;;;;6092062;23;20459;-88
2022/01/27 01:01:40;;;;;;;20.23;11.43;;;3.40;99.90;;;;;;6116965;23;20209;-88
2022/01/27 01:04:08;;;;;;;45.50;21.60;;;3.50;99.90;;;;;;6118017;23;20480;-87
2022/01/27 01:06:41;;;;;;;26.75;14.05;;;3.60;99.90;;;;;;6116068;23;20208;-87
2022/01/27 01:14:36;;;;;;;41.70;20.08;;;3.50;99.90;;;;;;6127967;23;20138;-86
2022/01/27 01:19:47;;;;;;;35.25;19.92;;;3.60;99.90;;;;;;6126570;23;20142;-86
2022/01/27 01:33:11;;;;;;;43.35;19.65;;;5.20;99.90;;;;;;6127485;23;20191;-88
2022/01/27 01:35:50;;;;;;;38.28;20.13;;;4.10;99.90;;;;;;6115214;23;20189;-88
2022/01/27 01:38:19;;;;;;;38.60;20.27;;;3.60;99.90;;;;;;6091073;23;20168;-87
2022/01/27 01:41:05;;;;;;;33.42;19.23;;;3.60;99.90;;;;;;6115795;23;20598;-87
2022/01/27 01:43:31;;;;;;;41.65;21.05;;;3.60;99.90;;;;;;6066604;23;20196;-86
2022/01/27 01:45:57;;;;;;;40.47;22.10;;;;;;;;;;6089793;23;20350;-87
2022/01/27 01:48:25;;;;;;;35.22;19.88;;;3.60;99.90;;;;;;6091345;23;20375;-88
2022/01/27 01:50:51;;;;;;;44.97;22.77;;;3.20;99.90;;;;;;6089309;23;20183;-88
2022/01/27 01:53:17;;;;;;;36.03;21.40;;;3.40;99.90;;;;;;6117950;23;20200;-90
2022/01/27 01:55:46;;;;;;;40.20;21.50;;;3.40;99.90;;;;;;6116112;23;20378;-89
2022/01/27 01:58:12;;;;;;;32.25;19.38;;;3.40;99.90;;;;;;6091228;23;20165;-88
2022/01/27 02:00:40;;;;;;;39.33;21.70;;;3.70;99.90;;;;;;6122788;23;20149;-88
2022/01/27 02:03:08;;;;;;;45.28;21.10;;;3.50;99.90;;;;;;6125660;23;20188;-86
2022/01/27 02:05:40;;;;;;;39.40;21.85;;;3.50;99.90;;;;;;6122176;23;20185;-86
2022/01/27 02:08:35;;;;;;;39.15;20.77;;;3.40;99.90;;;;;;6119759;23;20157;-86
2022/01/27 02:19:18;;;;;;;35.25;16.30;;;3.40;99.90;;;;;;6117772;23;20269;-87
2022/01/27 02:21:50;;;;;;;53.53;20.80;;;3.50;99.90;;;;;;6115501;23;20157;-86
2022/01/27 02:24:18;;;;;;;44.45;24.23;;;3.80;99.90;;;;;;6091086;23;20276;-86
2022/01/27 02:26:44;;;;;;;43.20;20.98;;;3.40;99.90;;;;;;6114656;23;20161;-87
2022/01/27 02:29:10;;;;;;;29.20;14.02;;;3.40;99.90;;;;;;6090156;23;20161;-87
2022/01/27 02:31:36;;;;;;;40.50;20.13;;;3.50;99.90;;;;;;6089061;23;20185;-87
2022/01/27 02:34:04;;;;;;;38.00;16.90;;;;;;;;;;6091077;23;20679;-87
2022/01/27 02:36:33;;;;;;;33.47;18.77;;;3.60;99.90;;;;;;6115657;23;20429;-87
2022/01/27 02:39:00;;;;;;;20.88;13.38;;;3.50;99.90;;;;;;6090785;23;20165;-87
2022/01/27 02:41:30;;;;;;;35.40;17.75;;;3.50;99.90;;;;;;6112451;23;20158;-87
2022/01/27 02:43:56;;;;;;;39.22;18.63;;;3.50;99.90;;;;;;6091404;23;20164;-87
2022/01/27 02:46:29;;;;;;;29.23;14.37;;;3.60;99.90;;;;;;6113640;23;20624;-86
2022/01/27 02:48:55;;;;;;;34.78;18.50;;;3.60;99.90;;;;;;6091451;23;20485;-87
2022/01/27 02:51:21;;;;;;;24.50;13.37;;;;;;;;;;6089418;23;20625;-87
2022/01/27 02:53:47;;;;;;;42.75;20.25;;;3.70;99.90;;;;;;6116970;23;20404;-87
2022/01/27 02:56:13;;;;;;;38.00;19.70;;;;;;;;;;6113708;23;20585;-86
2022/01/27 02:58:39;;;;;;;32.13;16.48;;;3.60;99.90;;;;;;6091820;23;20442;-87
2022/01/27 03:01:05;;;;;;;36.20;19.77;;;;;;;;;;6089946;23;20648;-86
2022/01/27 03:03:31;;;;;;;38.45;19.45;;;3.60;99.90;;;;;;6090938;23;20794;-87
2022/01/27 03:05:56;;;;;;;32.10;17.13;;;3.60;99.90;;;;;;6089938;23;20209;-87
2022/01/27 03:08:22;;;;;;;37.87;18.17;;;3.50;99.90;;;;;;6091433;23;20165;-86
2022/01/27 03:11:01;;;;;;;31.00;16.47;;;3.50;99.90;;;;;;6089326;23;20157;-86
2022/01/27 03:13:30;;;;;;;26.48;15.82;;;3.50;99.90;;;;;;6091239;23;20617;-87
2022/01/27 03:15:56;;;;;;;34.15;15.35;;;3.50;99.90;;;;;;6089571;23;20157;-87
2022/01/27 03:18:22;;;;;;;36.60;20.60;;;;;;;;;;6091275;23;20496;-87
2022/01/27 03:20:47;;;;;;;40.38;20.88;;;3.50;99.90;;;;;;6115917;23;20373;-87
2022/01/27 03:23:13;;;;;;;27.67;13.57;;;;;;;;;;6091807;23;20166;-85
2022/01/27 03:25:40;;;;;;;36.63;19.55;;;3.60;99.90;;;;;;6116725;23;20304;-87
2022/01/27 03:28:08;;;;;;;27.73;14.80;;;3.60;99.90;;;;;;6116563;23;20165;-89
2022/01/27 03:30:34;;;;;;;27.58;12.55;;;3.60;99.90;;;;;;6092131;23;20878;-86
2022/01/27 03:33:00;;;;;;;31.90;18.47;;;3.70;99.90;;;;;;6121003;23;20182;-86
2022/01/27 03:35:26;;;;;;;37.10;16.97;;;;;;;;;;6100171;23;20201;-87
2022/01/27 03:37:52;;;;;;;29.83;15.13;;;;;;;;;;6118534;23;20455;-87
2022/01/27 03:40:17;;;;;;;36.65;17.92;;;3.70;99.90;;;;;;6115811;23;20464;-87
2022/01/27 03:42:50;;;;;;;29.93;16.70;;;3.70;99.90;;;;;;6141793;23;20648;-87
2022/01/27 03:45:18;;;;;;;32.92;17.83;;;3.60;99.90;;;;;;6118069;23;20402;-86
2022/01/27 03:47:44;;;;;;;32.47;19.95;;;3.60;99.90;;;;;;6119305;23;20167;-88
2022/01/27 03:50:22;;;;;;;33.20;17.33;;;3.60;99.90;;;;;;6115711;23;20166;-87
2022/01/27 03:52:47;;;;;;;34.90;18.20;;;3.70;99.90;;;;;;6142487;23;20621;-87
2022/01/27 03:55:13;;;;;;;29.27;14.47;;;3.70;99.90;;;;;;6118519;23;20201;-86
2022/01/27 03:57:39;;;;;;;34.30;17.52;;;3.70;99.90;;;;;;6117985;23;20158;-88
2022/01/27 04:00:07;;;;;;;29.33;16.33;;;3.80;99.90;;;;;;6117582;23;20204;-88
2022/01/27 04:02:35;;;;;;;35.95;17.08;;;3.70;99.90;;;;;;6117563;23;20158;-87
2022/01/27 04:05:01;;;;;;;35.47;16.90;;;3.80;99.90;;;;;;6117413;23;20208;-88
2022/01/27 04:07:27;;;;;;;37.40;18.23;;;3.60;99.90;;;;;;6117532;23;20355;-87
2022/01/27 04:09:53;;;;;;;35.10;17.50;;;;;;;;;;6117341;23;20388;-87
2022/01/27 04:12:19;;;;;;;35.28;19.73;;;3.70;99.90;;;;;;6119250;23;20614;-88
2022/01/27 04:14:44;;;;;;;38.30;22.00;;;3.60;99.90;;;;;;6115831;23;20204;-88
2022/01/27 04:17:13;;;;;;;40.37;18.03;;;;;;;;;;6119513;23;20138;-87
2022/01/27 04:19:38;;;;;;;44.75;20.80;;;3.70;99.90;;;;;;6115748;23;20204;-87
2022/01/27 04:22:04;;;;;;;34.70;17.03;;;3.60;99.90;;;;;;6119087;23;20153;-87
2022/01/27 04:24:30;;;;;;;33.53;17.60;;;3.80;99.90;;;;;;6115901;23;20306;-86
2022/01/27 04:27:05;;;;;;;32.78;17.65;;;3.80;99.90;;;;;;6120783;23;20366;-86
2022/01/27 04:29:39;;;;;;;31.85;17.80;;;3.60;99.90;;;;;;6116966;23;20698;-86
2022/01/27 04:32:08;;;;;;;28.85;15.05;;;3.80;99.90;;;;;;6143695;23;20212;-85
2022/01/27 04:34:36;;;;;;;26.65;14.10;;;3.70;99.90;;;;;;6116163;23;20168;-87
2022/01/27 04:37:02;;;;;;;33.63;16.85;;;3.80;99.90;;;;;;6093874;23;20187;-86
2022/01/27 04:39:38;;;;;;;35.53;17.23;;;3.70;99.90;;;;;;6092703;23;20157;-86
2022/01/27 04:42:12;;;;;;;27.95;12.85;;;3.80;99.90;;;;;;6092632;23;20480;-86
2022/01/27 04:44:57;;;;;;;31.50;16.02;;;3.70;99.90;;;;;;6117543;23;20554;-87
2022/01/27 04:47:34;;;;;;;16.60;9.35;;;3.70;99.90;;;;;;6118881;23;20581;-87
2022/01/27 04:49:59;;;;;;;29.80;16.60;;;3.80;99.90;;;;;;6116979;23;20195;-86
2022/01/27 04:52:28;;;;;;;38.60;19.60;;;;;;;;;;6093317;23;20607;-87
2022/01/27 04:57:20;;;;;;;33.80;18.27;;;3.80;99.90;;;;;;6119003;23;20188;-87
2022/01/27 04:59:46;;;;;;;38.33;20.77;;;;;;;;;;6117513;23;20145;-86
2022/01/27 05:02:24;;;;;;;24.75;11.50;;;4.00;99.90;;;;;;6092809;23;20165;-87
2022/01/27 05:04:51;;;;;;;29.45;17.00;;;3.90;99.90;;;;;;6117340;23;20572;-87
2022/01/27 05:07:16;;;;;;;30.80;15.48;;;3.90;99.90;;;;;;6092874;23;20160;-87
2022/01/27 05:10:01;;;;;;;31.23;16.77;;;3.90;99.90;;;;;;6116996;23;20161;-86
2022/01/27 05:12:38;;;;;;;43.55;15.55;;;3.90;99.90;;;;;;6092611;23;20188;-87
2022/01/27 05:15:05;;;;;;;32.00;15.82;;;3.90;99.90;;;;;;6116761;23;20224;-88
2022/01/27 05:17:30;;;;;;;34.13;13.77;;;3.90;99.90;;;;;;6119349;23;20228;-87
2022/01/27 05:19:59;;;;;;;25.93;13.43;;;3.90;99.90;;;;;;6090795;23;20208;-87
2022/01/27 05:22:27;;;;;;;36.20;18.13;;;3.90;99.90;;;;;;6093035;23;20177;-87
2022/01/27 05:24:56;;;;;;;39.30;17.52;;;3.90;99.90;;;;;;6116701;23;20149;-88
2022/01/27 05:27:22;;;;;;;31.63;17.35;;;3.90;99.90;;;;;;6118064;23;20161;-87
2022/01/27 05:29:48;;;;;;;23.93;14.63;;;;;;;;;;6091886;23;20164;-87
2022/01/27 05:32:13;;;;;;;31.38;16.77;;;3.80;99.90;;;;;;6092573;23;20232;-87
2022/01/27 05:34:39;;;;;;;34.80;19.07;;;;;;;;;;6117090;23;20548;-86
2022/01/27 05:37:05;;;;;;;37.90;15.55;;;3.90;99.90;;;;;;6093039;23;20157;-86
2022/01/27 05:39:34;;;;;;;32.27;14.73;;;4.00;99.90;;;;;;6091005;23;20696;-86
2022/01/27 05:42:00;;;;;;;36.67;16.27;;;4.00;99.90;;;;;;6094008;23;20161;-86
2022/01/27 05:44:25;;;;;;;36.27;19.07;;;3.90;99.90;;;;;;6118105;23;20451;-86
2022/01/27 05:46:51;;;;;;;24.20;14.30;;;;;;;;;;6091331;23;20176;-87
2022/01/27 05:49:17;;;;;;;31.23;14.27;;;3.70;99.90;;;;;;6093178;23;20401;-87
2022/01/27 05:51:43;;;;;;;22.03;13.70;;;;;;;;;;6117046;23;20264;-88
2022/01/27 05:54:14;;;;;;;28.47;16.67;;;4.00;99.90;;;;;;6090154;23;20515;-87
2022/01/27 05:56:40;;;;;;;28.88;16.38;;;4.00;99.90;;;;;;6092779;23;20386;-86
2022/01/27 05:59:11;;;;;;;26.57;15.27;;;3.90;99.90;;;;;;6117495;23;20197;-86
2022/01/27 06:01:37;;;;;;;36.60;18.50;;;4.00;99.90;;;;;;6092520;23;20269;-88
2022/01/27 06:04:03;;;;;;;34.50;16.70;;;4.00;99.90;;;;;;6090980;23;20415;-87
2022/01/27 06:06:31;;;;;;;27.37;13.80;;;;;;;;;;6116411;23;20153;-87
2022/01/27 06:08:57;;;;;;;31.40;15.93;;;4.00;99.90;;;;;;6090212;23;20157;-88
2022/01/27 06:11:25;;;;;;;33.00;17.20;;;4.00;99.90;;;;;;6092232;23;20181;-85
2022/01/27 06:13:54;;;;;;;29.17;14.32;;;4.10;99.90;;;;;;6118190;23;20185;-87
2022/01/27 06:16:20;;;;;;;25.77;16.02;;;4.10;99.90;;;;;;6119491;23;20595;-86
2022/01/27 06:18:46;;;;;;;35.78;15.32;;;4.20;99.90;;;;;;6090112;23;20240;-86
2022/01/27 06:21:13;;;;;;;27.10;14.60;;;4.20;99.90;;;;;;6091927;23;20262;-87
2022/01/27 06:23:48;;;;;;;26.95;15.32;;;4.10;99.90;;;;;;6111616;23;20196;-86
2022/01/27 06:26:29;;;;;;;;;;;;;;;;;;;;;
2022/01/27 06:28:58;;;;;;;39.28;15.35;;;4.20;99.90;;;;;;6113095;23;20153;-88
2022/01/27 06:31:30;;;;;;;39.53;18.17;;;4.30;99.90;;;;;;6089645;23;20165;-88
2022/01/27 06:34:02;;;;;;;24.83;13.38;;;4.20;99.90;;;;;;6110479;23;20169;-82
2022/01/27 06:36:33;;;;;;;32.35;15.65;;;4.30;99.90;;;;;;6088719;23;20193;-88
2022/01/27 06:39:32;;;;;;;22.67;12.02;;;4.30;99.90;;;;;;6089173;23;20496;-87
2022/01/27 06:42:01;;;;;;;24.27;12.40;;;4.40;99.90;;;;;;6091524;23;20171;-83
2022/01/27 06:44:37;;;;;;;24.73;12.63;;;4.40;99.90;;;;;;6123658;23;20429;-84
2022/01/27 06:47:03;;;;;;;28.88;16.73;;;4.50;99.90;;;;;;6117017;23;20666;-85
2022/01/27 06:49:33;;;;;;;29.13;16.40;;;4.50;99.90;;;;;;6117387;23;20219;-87
2022/01/27 06:51:59;;;;;;;22.77;13.57;;;4.50;99.90;;;;;;6115337;23;20479;-86
2022/01/27 06:54:25;;;;;;;29.03;14.73;;;;;;;;;;6089023;23;20553;-87
2022/01/27 06:56:54;;;;;;;32.75;15.90;;;4.70;99.90;;;;;;6086499;23;20165;-87
2022/01/27 06:59:23;;;;;;;28.45;15.93;;;4.70;99.90;;;;;;6114561;23;20216;-83
2022/01/27 07:01:49;;;;;;;14.82;9.25;;;4.80;99.90;;;;;;6088109;23;20209;-87
2022/01/27 07:04:15;;;;;;;33.65;17.67;;;4.80;99.90;;;;;;6089698;23;20248;-87
2022/01/27 07:06:41;;;;;;;30.73;15.53;;;5.10;99.90;;;;;;6114641;23;20158;-86
2022/01/27 07:09:12;;;;;;;22.80;14.73;;;4.80;99.90;;;;;;6087010;23;20468;-88
2022/01/27 07:11:41;;;;;;;24.02;14.63;;;5.00;99.90;;;;;;6115335;23;20384;-86
2022/01/27 07:14:06;;;;;;;28.30;16.17;;;5.10;99.90;;;;;;6114368;23;20162;-87
2022/01/27 07:16:34;;;;;;;17.20;10.80;;;5.20;99.90;;;;;;6117036;23;20154;-87
2022/01/27 07:19:02;;;;;;;25.30;15.40;;;5.30;99.90;;;;;;6090698;23;20397;-86
2022/01/27 07:21:35;;;;;;;26.33;14.40;;;5.30;99.90;;;;;;6114638;23;20235;-88
2022/01/27 07:24:04;;;;;;;26.08;16.60;;;;;;;;;;6092490;23;20240;-87
2022/01/27 07:26:36;;;;;;;23.98;15.55;;;5.40;99.90;;;;;;6093754;23;20169;-87
2022/01/27 07:29:02;;;;;;;28.27;13.93;;;5.40;99.90;;;;;;6094637;23;20191;-88
2022/01/27 07:32:06;;;;;;;22.10;13.17;;;5.50;99.90;;;;;;6096064;23;20181;-86
2022/01/27 07:35:07;;;;;;;24.23;14.45;;;5.50;99.90;;;;;;6011874;23;20151;-89
2022/01/27 07:38:08;;;;;;;26.00;12.88;;;5.50;99.90;;;;;;6099239;23;20166;-87
2022/01/27 07:40:34;;;;;;;19.92;12.75;;;5.50;99.90;;;;;;6122251;23;20167;-89
2022/01/27 07:43:00;;;;;;;28.63;17.02;;;5.50;99.90;;;;;;6121087;23;20161;-86
2022/01/27 07:45:26;;;;;;;33.77;16.83;;;5.30;99.90;;;;;;6092469;23;20165;-89
2022/01/27 07:47:52;;;;;;;25.70;15.27;;;5.40;99.90;;;;;;6121069;23;20444;-88
2022/01/27 07:50:18;;;;;;;29.23;15.83;;;5.30;99.90;;;;;;6093779;23;20397;-87
2022/01/27 07:52:45;;;;;;;32.58;17.52;;;5.30;99.90;;;;;;6120996;23;20428;-88
2022/01/27 07:55:12;;;;;;;28.67;15.80;;;5.80;99.90;;;;;;6119938;23;20628;-86
2022/01/27 07:57:38;;;;;;;26.13;14.38;;;5.30;99.90;;;;;;6098545;23;20212;-78
2022/01/27 08:00:07;;;;;;;19.00;12.52;;;5.80;99.90;;;;;;6124451;23;20137;-92
2022/01/27 08:02:34;;;;;;;18.92;12.23;;;5.30;99.90;;;;;;6099425;23;20146;-88
2022/01/27 08:05:00;;;;;;;29.65;15.40;;;5.30;99.90;;;;;;6121917;23;20177;-91
2022/01/27 08:08:01;;;;;;;32.80;14.70;;;5.30;99.90;;;;;;6097688;23;20283;-89
2022/01/27 08:10:27;;;;;;;33.80;17.67;;;5.30;99.90;;;;;;6098448;23;20387;-78
2022/01/27 08:13:01;;;;;;;28.00;13.50;;;5.40;99.90;;;;;;6097856;23;20185;-82
2022/01/27 08:15:30;;;;;;;25.35;13.98;;;5.30;99.90;;;;;;6095804;23;20721;-85
2022/01/27 08:17:56;;;;;;;33.17;17.35;;;5.40;99.90;;;;;;6095368;23;20244;-90
2022/01/27 08:20:22;;;;;;;27.67;15.40;;;;;;;;;;6092757;23;20180;-89
2022/01/27 08:23:03;;;;;;;24.35;13.20;;;5.10;99.90;;;;;;6126111;23;20161;-89
2022/01/27 08:25:59;;;;;;;39.20;18.02;;;5.10;99.90;;;;;;6127898;23;20236;-90
2022/01/27 08:28:31;;;;;;;36.28;18.95;;;5.20;99.90;;;;;;6097159;23;20188;-87
2022/01/27 08:31:04;;;;;;;26.95;16.10;;;5.10;99.90;;;;;;6096355;23;20158;-87
2022/01/27 08:33:51;;;;;;;33.22;17.58;;;5.00;99.90;;;;;;6119237;23;20216;-88
2022/01/27 08:36:22;;;;;;;36.30;19.40;;;5.10;99.90;;;;;;6092864;23;20193;-87
2022/01/27 08:38:50;;;;;;;37.50;19.90;;;5.00;99.90;;;;;;6121635;23;20496;-88
2022/01/27 08:41:16;;;;;;;44.55;20.77;;;5.00;99.90;;;;;;6122463;23;20149;-82
2022/01/27 08:44:25;;;;;;;46.73;22.83;;;5.10;99.90;;;;;;6152818;23;20717;-92
2022/01/27 08:47:48;;;;;;;39.38;21.48;;;5.00;99.90;;;;;;6099840;23;20237;-92
2022/01/27 08:51:15;;;;;;;47.13;22.85;;;4.90;99.90;;;;;;6160537;23;20538;-90
2022/01/27 08:54:42;;;;;;;41.35;19.02;;;5.00;99.90;;;;;;6158988;23;20168;-93
2022/01/27 08:58:16;;;;;;;46.60;22.45;;;4.90;99.90;;;;;;6154610;23;20232;-89
2022/01/27 09:01:48;;;;;;;34.97;18.10;;;5.00;99.90;;;;;;6148501;23;20157;-86
2022/01/27 09:04:24;;;;;;;31.88;16.40;;;5.20;99.90;;;;;;6142767;23;20286;-77
2022/01/27 09:06:50;;;;;;;38.33;18.00;;;;;;;;;;6122546;23;20251;-81
2022/01/27 09:09:23;;;;;;;41.23;23.33;;;5.30;99.90;;;;;;6122698;23;20164;-89
2022/01/27 09:11:59;;;;;;;41.00;21.00;;;5.10;99.90;;;;;;6149110;23;20426;-89
2022/01/27 09:14:30;;;;;;;45.90;24.25;;;5.10;99.90;;;;;;6148134;23;20142;-86
2022/01/27 09:17:26;;;;;;;45.58;23.83;;;5.20;99.90;;;;;;6149071;23;20225;-89
2022/01/27 09:22:22;;;;;;;32.92;17.83;;;5.10;99.90;;;;;;6119283;23;20661;-88
2022/01/27 09:25:09;;;;;;;45.17;22.40;;;5.10;99.90;;;;;;6088029;23;20617;-87
2022/01/27 09:27:35;;;;;;;46.67;24.67;;;5.20;99.90;;;;;;6093600;23;20866;-83
2022/01/27 09:30:06;;;;;;;39.83;21.33;;;5.20;99.90;;;;;;6123052;23;20177;-86
2022/01/27 09:32:31;;;;;;;47.90;23.98;;;5.20;99.90;;;;;;6121776;23;20181;-88
2022/01/27 09:35:00;;;;;;;47.77;25.43;;;5.20;99.90;;;;;;6121766;23;20149;-87
2022/01/27 09:37:26;;;;;;;41.75;20.55;;;5.40;99.90;;;;;;6123578;23;20703;-87
2022/01/27 09:39:52;;;;;;;50.90;24.53;;;5.30;99.90;;;;;;6093135;23;20184;-88
2022/01/27 09:42:18;;;;;;;40.40;20.73;;;5.10;99.90;;;;;;6121423;23;20160;-89
2022/01/27 09:44:51;;;;;;;37.17;18.60;;;;;;;;;;6093850;23;20951;-90
2022/01/27 09:47:24;;;;;;;41.30;20.42;;;5.30;99.90;;;;;;6099889;23;20410;-88
2022/01/27 09:50:04;;;;;;;36.33;21.00;;;5.30;99.90;;;;;;6120522;23;20165;-85
2022/01/27 09:52:34;;;;;;;37.45;19.00;;;5.40;99.90;;;;;;6121358;23;20217;-88
2022/01/27 09:55:10;;;;;;;23.63;13.70;;;5.40;99.90;;;;;;6094123;23;20156;-89
2022/01/27 09:57:35;;;;;;;44.90;25.38;;;5.40;99.90;;;;;;6094489;23;20152;-87
2022/01/27 10:00:04;;;;;;;33.97;17.90;;;;;;;;;;6118130;23;20519;-87
2022/01/27 10:02:36;;;;;;;39.10;18.98;;;5.40;99.90;;;;;;6093993;23;20193;-86
2022/01/27 10:05:02;;;;;;;35.30;16.40;;;5.40;99.90;;;;;;6092691;23;20177;-83
2022/01/27 10:07:45;;;;;;;35.63;19.08;;;4.80;99.90;;;;;;6120694;23;20149;-87
2022/01/27 10:10:20;;;;;;;33.20;18.70;;;5.40;99.90;;;;;;6098161;23;20154;-85
2022/01/27 10:12:50;;;;;;;33.58;19.08;;;5.50;99.90;;;;;;6125655;23;20169;-87
2022/01/27 10:15:19;;;;;;;31.13;17.02;;;5.50;99.90;;;;;;6096193;23;20611;-88
2022/01/27 10:18:09;;;;;;;25.60;15.13;;;5.50;99.90;;;;;;6104214;23;20166;-84
2022/01/27 10:20:47;;;;;;;38.55;19.63;;;5.80;99.90;;;;;;6138698;23;20235;-90
2022/01/27 10:23:24;;;;;;;22.35;14.38;;;5.40;99.90;;;;;;6150158;23;20160;-89
2022/01/27 10:25:56;;;;;;;18.58;10.68;;;5.60;99.90;;;;;;6123401;23;20314;-87
2022/01/27 10:29:12;;;;;;;32.17;18.05;;;5.60;99.90;;;;;;6123873;23;20487;-87
2022/01/27 10:31:44;;;;;;;29.83;17.90;;;5.60;99.90;;;;;;6122266;23;20156;-89
2022/01/27 10:34:17;;;;;;;35.58;20.27;;;5.50;99.90;;;;;;6124616;23;20144;-86
2022/01/27 10:36:47;;;;;;;31.80;19.77;;;5.60;99.90;;;;;;6123111;23;20164;-81
2022/01/27 10:39:36;;;;;;;39.92;20.40;;;5.50;99.90;;;;;;6123703;23;20233;-87
2022/01/27 10:42:08;;;;;;;22.35;15.00;;;5.60;99.90;;;;;;6111307;23;20160;-88
2022/01/27 10:44:46;;;;;;;33.28;20.27;;;5.60;99.90;;;;;;6123468;23;20156;-85
2022/01/27 10:47:29;;;;;;;34.05;20.88;;;5.70;99.90;;;;;;6121521;23;20541;-87
2022/01/27 10:50:04;;;;;;;28.95;18.23;;;6.70;99.90;;;;;;6123435;23;20136;-89
2022/01/27 10:52:41;;;;;;;28.45;18.42;;;6.50;99.90;;;;;;6122504;23;20708;-90
2022/01/27 10:55:29;;;;;;;31.60;20.45;;;8.40;99.90;;;;;;6123882;23;20180;-87
2022/01/27 10:57:55;;;;;;;35.05;19.40;;;6.30;99.90;;;;;;6123293;23;20148;-89
2022/01/27 11:00:34;;;;;;;;;;;;;;;;;;;;;
2022/01/27 11:03:16;;;;;;;30.10;20.60;;;5.90;99.90;;;;;;6148239;23;20212;-88
2022/01/27 11:05:45;;;;;;;26.08;16.00;;;5.90;99.90;;;;;;6146285;23;20232;-84
2022/01/27 11:08:24;;;;;;;23.92;15.57;;;5.90;99.90;;;;;;6120214;23;20468;-87
2022/01/27 11:10:55;;;;;;;31.40;19.58;;;6.20;99.90;;;;;;6156096;23;20189;-88
2022/01/27 11:13:30;;;;;;;29.08;16.48;;;5.90;99.90;;;;;;6132711;23;20219;-89
2022/01/27 11:16:03;;;;;;;29.98;16.27;;;5.00;99.90;;;;;;6151062;23;20584;-82
2022/01/27 11:18:30;;;;;;;25.98;15.93;;;4.80;99.90;;;;;;6124868;23;20157;-86
2022/01/27 11:21:38;;;;;;;22.35;14.98;;;4.10;99.90;;;;;;6148855;23;20185;-84
2022/01/27 11:24:36;;;;;;;32.17;17.63;;;6.00;99.90;;;;;;6122907;23;20609;-88
2022/01/27 11:27:06;;;;;;;28.50;18.95;;;8.20;99.90;;;;;;6124544;23;20505;-87
2022/01/27 11:30:05;;;;;;;28.27;18.08;;;5.50;99.90;;;;;;6124707;23;20241;-87
2022/01/27 11:33:29;;;;;;;25.90;17.45;;;6.70;99.90;;;;;;6152634;23;20176;-85
2022/01/27 11:36:09;;;;;;;24.95;15.05;;;7.40;99.90;;;;;;6153490;23;20160;-88
2022/01/27 11:38:42;;;;;;;25.52;13.80;;;7.00;99.90;;;;;;6160323;23;20223;-85
2022/01/27 11:41:37;;;;;;;27.90;17.50;;;6.60;99.90;;;;;;6159803;23;20156;-86
2022/01/27 11:44:29;;;;;;;22.45;14.43;;;6.40;99.90;;;;;;6125315;23;20242;-83
2022/01/27 11:47:10;;;;;;;36.65;18.10;;;6.00;99.90;;;;;;6129217;23;20516;-86
2022/01/27 11:49:46;;;;;;;25.23;17.23;;;6.00;99.90;;;;;;6151277;23;21083;-87
2022/01/27 11:52:28;;;;;;;17.40;11.38;;;6.00;99.90;;;;;;6125041;23;20184;-79
2022/01/27 11:55:18;;;;;;;26.63;15.60;;;6.00;99.90;;;;;;6126208;23;20676;-85
2022/01/27 11:57:45;;;;;;;19.45;12.68;;;6.10;99.90;;;;;;6122958;23;20587;-86
2022/01/27 12:00:30;;;;;;;11.00;9.85;;;6.20;99.90;;;;;;6126225;23;20160;-83
2022/01/27 12:03:02;;;;;;;18.45;13.80;;;6.40;99.90;;;;;;6124441;23;20151;-81
2022/01/27 12:05:29;;;;;;;15.95;12.05;;;8.00;99.90;;;;;;6120363;23;20181;-85
2022/01/27 12:08:16;;;;;;;20.23;14.75;;;6.10;99.90;;;;;;6151183;23;20137;-88
2022/01/27 12:10:44;;;;;;;21.67;14.50;;;6.40;99.90;;;;;;6121224;23;20193;-87
2022/01/27 12:13:59;;;;;;;22.87;16.27;;;6.30;99.90;;;;;;6121909;23;20211;-85
2022/01/27 12:19:22;;;;;;;26.67;15.68;;;6.40;99.90;;;;;;6161496;23;20145;-83
2022/01/27 12:22:19;;;;;;;;;;;;;;;;;;;;;
2022/01/27 12:25:14;;;;;;;21.98;14.10;;;10.70;99.90;;;;;;6157552;23;20164;-86
2022/01/27 12:27:48;;;;;;;21.23;14.00;;;6.30;99.90;;;;;;6132017;23;20844;-82
2022/01/27 12:30:16;;;;;;;15.75;10.57;;;5.50;99.90;;;;;;6156419;23;20188;-87
2022/01/27 12:32:47;;;;;;;23.52;16.00;;;4.90;99.90;;;;;;6153904;23;20200;-87
2022/01/27 12:35:16;;;;;;;28.45;18.83;;;6.30;99.90;;;;;;6126367;23;20596;-87
2022/01/27 12:37:57;;;;;;;;;;;;;;;;;;;;;
2022/01/27 12:40:23;;;;;;;30.73;18.88;;;8.70;99.90;;;;;;6155969;23;20160;-87
2022/01/27 12:43:01;;;;;;;29.47;18.50;;;6.60;99.90;;;;;;6152316;23;20156;-86
2022/01/27 12:45:36;;;;;;;28.33;17.67;;;8.20;99.90;;;;;;6124518;23;20628;-87
2022/01/27 12:48:11;;;;;;;30.80;19.25;;;7.50;99.90;;;;;;6154631;23;20140;-88
2022/01/27 12:50:37;;;;;;;28.73;18.40;;;6.80;99.90;;;;;;6152772;23;20163;-85
2022/01/27 12:53:14;;;;;;;32.60;18.88;;;6.40;99.90;;;;;;6128451;23;20215;-87
2022/01/27 12:55:52;;;;;;;;;;;;;;;;;;;;;
2022/01/27 12:58:31;;;;;;;26.67;16.13;;;9.90;99.90;;;;;;6156084;23;20194;-88
2022/01/27 13:01:04;;;;;;;27.52;16.55;;;6.50;99.90;;;;;;6122705;23;20288;-87
2022/01/27 13:03:30;;;;;;;22.15;17.88;;;7.00;99.90;;;;;;6131730;23;20156;-88
2022/01/27 13:05:59;;;;;;;21.33;16.40;;;6.60;99.90;;;;;;6152664;23;20161;-83
2022/01/27 13:08:31;;;;;;;23.88;15.20;;;9.00;99.90;;;;;;6152850;23;20384;-88
2022/01/27 13:11:18;;;;;;;24.58;16.10;;;6.60;99.90;;;;;;6127417;23;20172;-89
2022/01/27 13:13:56;;;;;;;21.35;15.35;;;6.20;99.90;;;;;;6154794;23;20222;-84
2022/01/27 13:16:30;;;;;;;21.88;14.88;;;5.00;99.90;;;;;;6126156;23;20152;-87
2022/01/27 13:19:06;;;;;;;22.40;15.50;;;6.60;99.90;;;;;;6131004;23;20165;-88
2022/01/27 13:21:35;;;;;;;25.52;15.85;;;7.30;99.90;;;;;;6129790;23;20203;-88
2022/01/27 13:24:14;;;;;;;20.77;14.57;;;7.00;99.90;;;;;;6130010;23;20160;-86
2022/01/27 13:29:39;;;;;;;20.83;14.10;;;8.10;99.90;;;;;;6144492;23;20412;-88
2022/01/27 13:32:11;;;;;;;19.15;12.65;;;5.90;99.90;;;;;;6153116;23;20180;-87
2022/01/27 13:34:47;;;;;;;13.60;11.73;;;7.10;99.90;;;;;;6126163;23;20149;-88
2022/01/27 13:37:28;;;;;;;21.48;15.10;;;6.80;99.90;;;;;;6120632;23;20156;-87
2022/01/27 13:42:25;;;;;;;18.63;12.68;;;9.50;99.90;;;;;;6146983;23;20271;-86
2022/01/27 13:44:56;;;;;;;16.10;13.20;;;8.50;99.90;;;;;;6122446;23;20148;-87
2022/01/27 13:47:34;;;;;;;20.60;16.00;;;7.90;99.90;;;;;;6150020;23;20433;-87
2022/01/27 13:50:16;;;;;;;20.80;16.63;;;7.10;99.90;;;;;;6148931;23;20208;-86
2022/01/27 13:52:50;;;;;;;19.75;15.45;;;6.80;99.90;;;;;;6125043;23;20203;-85
2022/01/27 13:55:27;;;;;;;22.77;16.50;;;7.40;99.90;;;;;;6119089;23;20167;-86
2022/01/27 13:58:02;;;;;;;18.30;16.02;;;7.20;99.90;;;;;;6120542;23;20242;-86
2022/01/27 14:00:37;;;;;;;22.83;15.93;;;7.40;99.90;;;;;;6145673;23;20160;-82
2022/01/27 14:03:12;;;;;;;25.13;18.65;;;9.30;99.90;;;;;;6119880;23;20156;-86